Terminal Aerodrome Forecast
Issued by NWS Riverton, WY

Home | Current Version | Previous Version | Text Only | Print | Product List | Glossary On
Versions: 1 2 3 4 5 6 7 8 9 10 11 12 13
000
FTUS45 KRIW 311100
TAFRIW
TAF
KRIW 311122Z 3112/0112 VRB05KT P6SM SCT130 BKN200
     FM312000 18007KT P6SM SCT130 BKN200
     FM010800 20006KT P6SM BKN150=

USA.gov is the U.S. government's official web portal to all federal, state and local government web resources and services.